createdAt,value
2022-09-23T00:00:21.191Z,98534.34
2022-09-23T00:01:24.522Z,98535.09
2022-09-23T00:02:27.498Z,98540.59
2022-09-23T00:03:32.916Z,98537.19
2022-09-23T00:04:35.677Z,98539.81
2022-09-23T00:05:38.934Z,98529.91
2022-09-23T00:06:41.930Z,98532.22
2022-09-23T00:07:44.810Z,98534.84
2022-09-23T00:08:49.802Z,98533.53
2022-09-23T00:09:52.774Z,98525.69
2022-09-23T00:10:56.716Z,98527.78
2022-09-23T00:12:02.282Z,98532.25
2022-09-23T00:13:07.219Z,98531.97
2022-09-23T00:14:10.387Z,98525.44
2022-09-23T00:15:13.349Z,98532.50
2022-09-23T00:16:23.396Z,98529.06
2022-09-23T00:17:26.568Z,98530.37
2022-09-23T00:18:29.442Z,98524.63
2022-09-23T00:19:32.343Z,98534.81
2022-09-23T00:20:36.544Z,98535.56
2022-09-23T00:21:39.463Z,98527.72
2022-09-23T00:22:42.292Z,98531.09
2022-09-23T00:23:45.259Z,98526.69
2022-09-23T00:24:48.140Z,98517.03
2022-09-23T00:26:00.068Z,98524.50
2022-09-23T00:27:03.013Z,98526.78
2022-09-23T00:28:06.190Z,98528.59
2022-09-23T00:29:09.232Z,98528.06
2022-09-23T00:30:12.351Z,98525.72
2022-09-23T00:31:21.575Z,98521.66
2022-09-23T00:32:25.023Z,98519.91
2022-09-23T00:33:27.792Z,98524.31
2022-09-23T00:34:30.790Z,98517.84
2022-09-23T00:35:33.611Z,98514.97
2022-09-23T00:36:36.551Z,98516.22
2022-09-23T00:37:39.471Z,98509.22
2022-09-23T00:38:43.864Z,98501.72
2022-09-23T00:39:47.908Z,98509.00
2022-09-23T00:40:50.811Z,98513.69
2022-09-23T00:41:54.657Z,98508.44
2022-09-23T00:42:57.596Z,98505.81
2022-09-23T00:44:01.680Z,98503.00
2022-09-23T00:45:04.855Z,98505.81
2022-09-23T00:46:14.979Z,98498.53
2022-09-23T00:47:20.945Z,98504.53
2022-09-23T00:48:23.772Z,98501.66
2022-09-23T00:49:31.149Z,98499.84
2022-09-23T00:50:40.654Z,98496.69
2022-09-23T00:51:55.712Z,98507.87
2022-09-23T00:53:01.825Z,98500.84
2022-09-23T00:54:06.721Z,98503.22
2022-09-23T00:55:14.909Z,98491.28
2022-09-23T00:56:19.937Z,98493.09
2022-09-23T00:57:24.589Z,98496.97
2022-09-23T00:58:32.205Z,98487.88
2022-09-23T00:59:36.000Z,98489.44
2022-09-23T01:00:39.543Z,98500.88
2022-09-23T01:01:43.615Z,98496.19
2022-09-23T01:02:47.053Z,98495.97
2022-09-23T01:03:51.424Z,98495.91
2022-09-23T01:04:55.406Z,98499.56
2022-09-23T01:05:58.487Z,98501.63
2022-09-23T01:07:01.405Z,98498.28
2022-09-23T01:08:08.252Z,98505.56
2022-09-23T01:09:11.007Z,98499.31
2022-09-23T01:10:16.206Z,98501.41
2022-09-23T01:11:49.891Z,98504.50
2022-09-23T01:13:23.486Z,98504.97
2022-09-23T01:14:56.492Z,98506.03
2022-09-23T01:16:07.012Z,98512.06
2022-09-23T01:17:20.963Z,98503.22
2022-09-23T01:18:38.474Z,98510.69
2022-09-23T01:20:15.908Z,98511.50
2022-09-23T01:22:09.724Z,98507.87
2022-09-23T01:23:21.453Z,98508.13
2022-09-23T01:24:47.804Z,98500.31
2022-09-23T01:25:56.168Z,98504.22
2022-09-23T01:27:17.858Z,98506.31
2022-09-23T01:28:44.033Z,98499.31
2022-09-23T01:30:17.494Z,98502.97
2022-09-23T01:31:41.809Z,98500.56
2022-09-23T01:33:08.449Z,98503.22
2022-09-23T01:34:24.504Z,98500.06
2022-09-23T01:35:38.821Z,98507.91
2022-09-23T01:36:49.417Z,98500.41
2022-09-23T01:38:24.937Z,98503.00
2022-09-23T01:39:27.657Z,98499.06
2022-09-23T01:41:15.380Z,98508.16
2022-09-23T01:42:39.802Z,98502.16
2022-09-23T01:44:05.358Z,98502.41
2022-09-23T01:45:24.632Z,98506.59
2022-09-23T01:46:32.507Z,98507.91
2022-09-23T01:47:41.679Z,98499.53
2022-09-23T01:48:55.682Z,98495.34
2022-09-23T01:50:03.942Z,98501.38
2022-09-23T01:51:09.545Z,98495.41
2022-09-23T01:52:47.699Z,98494.13
2022-09-23T01:54:05.048Z,98496.69
2022-09-23T01:55:14.779Z,98493.63
2022-09-23T01:56:20.618Z,98498.56
2022-09-23T01:57:34.025Z,98498.00
2022-09-23T01:58:46.311Z,98493.06
2022-09-23T01:59:59.018Z,98494.13
2022-09-23T02:01:06.552Z,98501.13
2022-09-23T02:02:15.573Z,98499.28
2022-09-23T02:03:27.512Z,98498.22
2022-09-23T02:04:40.038Z,98503.97
2022-09-23T02:05:52.285Z,98500.63
2022-09-23T02:06:59.836Z,98501.13
2022-09-23T02:08:11.873Z,98504.50
2022-09-23T02:09:20.426Z,98505.34
2022-09-23T02:10:30.839Z,98500.41
2022-09-23T02:11:39.241Z,98492.53
2022-09-23T02:12:47.145Z,98498.28
2022-09-23T02:13:56.366Z,98497.50
2022-09-23T02:15:02.539Z,98501.47
2022-09-23T02:16:14.052Z,98498.03
2022-09-23T02:17:31.545Z,98498.78
2022-09-23T02:18:49.786Z,98493.84
2022-09-23T02:19:58.962Z,98497.75
2022-09-23T02:21:06.679Z,98499.06
2022-09-23T02:22:17.504Z,98496.75
2022-09-23T02:23:40.326Z,98488.69
2022-09-23T02:24:43.277Z,98495.16
2022-09-23T02:26:03.333Z,98495.16
2022-09-23T02:27:33.131Z,98496.72
2022-09-23T02:28:52.776Z,98495.16
2022-09-23T02:30:04.335Z,98483.72
2022-09-23T02:31:33.405Z,98492.87
2022-09-23T02:32:50.181Z,98486.84
2022-09-23T02:33:58.649Z,98494.94
2022-09-23T02:35:18.980Z,98488.44
2022-09-23T02:36:49.607Z,98494.69
2022-09-23T02:38:22.534Z,98497.25
2022-09-23T02:39:34.930Z,98490.00
2022-09-23T02:40:57.746Z,98494.94
2022-09-23T02:42:16.877Z,98490.44
2022-09-23T02:43:39.497Z,98489.09
2022-09-23T02:44:42.899Z,98497.19
2022-09-23T02:45:47.122Z,98492.31
2022-09-23T02:46:53.474Z,98495.75
2022-09-23T02:48:12.737Z,98498.13
2022-09-23T02:49:29.832Z,98496.78
2022-09-23T02:50:33.816Z,98490.50
2022-09-23T02:51:38.372Z,98494.16
2022-09-23T02:52:43.208Z,98500.63
2022-09-23T02:53:48.038Z,98497.53
2022-09-23T02:54:52.869Z,98495.47
2022-09-23T02:55:55.713Z,98500.37
2022-09-23T02:57:06.946Z,98502.50
2022-09-23T02:58:12.119Z,98499.87
2022-09-23T02:59:19.861Z,98496.53
2022-09-23T03:00:23.065Z,98496.53
2022-09-23T03:01:40.891Z,98496.81
2022-09-23T03:03:23.331Z,98496.78
2022-09-23T03:04:59.832Z,98492.87
2022-09-23T03:06:16.270Z,98487.94
2022-09-23T03:07:33.362Z,98492.34
2022-09-23T03:08:48.942Z,98496.50
2022-09-23T03:10:01.815Z,98488.91
2022-09-23T03:11:12.003Z,98493.06
2022-09-23T03:12:32.298Z,98489.91
2022-09-23T03:13:44.142Z,98490.44
2022-09-23T03:14:57.519Z,98493.03
2022-09-23T03:16:16.932Z,98494.81
2022-09-23T03:17:38.658Z,98496.06
2022-09-23T03:18:46.542Z,98482.06
2022-09-23T03:20:14.386Z,98492.50
2022-09-23T03:21:40.431Z,98499.84
2022-09-23T03:22:49.411Z,98491.22
2022-09-23T03:23:54.173Z,98488.41
2022-09-23T03:25:03.629Z,98492.03
2022-09-23T03:26:13.987Z,98495.41
2022-09-23T03:27:22.112Z,98498.22
2022-09-23T03:28:27.266Z,98500.25
2022-09-23T03:29:32.769Z,98497.94
2022-09-23T03:30:39.484Z,98502.38
2022-09-23T03:31:43.455Z,98500.56
2022-09-23T03:32:47.505Z,98501.56
2022-09-23T03:33:57.486Z,98500.28
2022-09-23T03:35:01.919Z,98498.72
2022-09-23T03:36:27.979Z,98498.97
2022-09-23T03:37:57.128Z,98500.31
2022-09-23T03:39:20.593Z,98494.00
2022-09-23T03:40:33.841Z,98502.56
2022-09-23T03:41:45.412Z,98510.13
2022-09-23T03:42:50.809Z,98504.81
2022-09-23T03:43:54.320Z,98507.25
2022-09-23T03:44:58.275Z,98502.91
2022-09-23T03:46:01.630Z,98507.06
2022-09-23T03:47:04.684Z,98505.25
2022-09-23T03:48:08.072Z,98503.19
2022-09-23T03:49:17.465Z,98509.13
2022-09-23T03:50:21.560Z,98503.94
2022-09-23T03:51:24.581Z,98503.66
2022-09-23T03:52:28.658Z,98503.91
2022-09-23T03:53:31.537Z,98502.38
2022-09-23T03:54:34.411Z,98511.00
2022-09-23T03:55:39.675Z,98506.81
2022-09-23T03:56:42.569Z,98510.75
2022-09-23T03:57:46.166Z,98506.84
2022-09-23T03:58:49.186Z,98503.97
2022-09-23T03:59:52.903Z,98501.94
2022-09-23T04:00:55.805Z,98499.56
2022-09-23T04:01:59.794Z,98501.38
2022-09-23T04:03:02.792Z,98499.53
2022-09-23T04:04:05.676Z,98498.50
2022-09-23T04:05:09.478Z,98501.09
2022-09-23T04:06:12.431Z,98507.34
2022-09-23T04:07:16.078Z,98500.09
2022-09-23T04:08:18.936Z,98500.34
2022-09-23T04:09:22.559Z,98512.00
2022-09-23T04:10:25.437Z,98502.66
2022-09-23T04:11:29.311Z,98502.16
2022-09-23T04:12:32.114Z,98499.81
2022-09-23T04:13:38.202Z,98504.47
2022-09-23T04:14:41.580Z,98507.63
2022-09-23T04:15:44.559Z,98503.97
2022-09-23T04:16:49.254Z,98503.72
2022-09-23T04:17:52.226Z,98504.25
2022-09-23T04:18:55.058Z,98501.88
2022-09-23T04:19:57.983Z,98504.97
2022-09-23T04:21:00.852Z,98499.31
2022-09-23T04:22:04.401Z,98507.59
2022-09-23T04:23:07.267Z,98504.44
2022-09-23T04:24:11.489Z,98506.28
2022-09-23T04:25:14.513Z,98504.72
2022-09-23T04:26:19.299Z,98504.16
2022-09-23T04:27:22.238Z,98501.28
2022-09-23T04:28:25.097Z,98504.38
2022-09-23T04:29:28.058Z,98504.88
2022-09-23T04:30:30.787Z,98507.50
2022-09-23T04:31:34.601Z,98503.53
2022-09-23T04:32:38.121Z,98510.13
2022-09-23T04:33:41.062Z,98499.72
2022-09-23T04:34:43.886Z,98504.41
2022-09-23T04:35:51.063Z,98501.03
2022-09-23T04:36:54.030Z,98503.16
2022-09-23T04:37:56.714Z,98501.34
2022-09-23T04:38:59.622Z,98502.34
2022-09-23T04:40:03.794Z,98503.47
2022-09-23T04:41:10.084Z,98506.06
2022-09-23T04:42:12.829Z,98505.00
2022-09-23T04:43:16.814Z,98510.25
2022-09-23T04:44:21.663Z,98508.44
2022-09-23T04:45:24.674Z,98510.00
2022-09-23T04:46:27.722Z,98513.34
2022-09-23T04:47:32.484Z,98508.41
2022-09-23T04:48:37.138Z,98505.81
2022-09-23T04:49:41.050Z,98505.56
2022-09-23T04:50:43.917Z,98509.50
2022-09-23T04:51:46.922Z,98505.31
2022-09-23T04:52:49.886Z,98508.19
2022-09-23T04:53:54.648Z,98507.19
2022-09-23T04:54:57.490Z,98506.13
2022-09-23T04:56:10.169Z,98501.69
2022-09-23T04:57:13.442Z,98507.50
2022-09-23T04:58:16.276Z,98509.59
2022-09-23T04:59:19.071Z,98505.44
2022-09-23T05:00:23.564Z,98507.00
2022-09-23T05:01:28.720Z,98511.41
2022-09-23T05:02:32.456Z,98511.69
2022-09-23T05:03:36.120Z,98519.25
2022-09-23T05:04:39.575Z,98519.00
2022-09-23T05:05:42.380Z,98523.44
2022-09-23T05:06:45.515Z,98526.28
2022-09-23T05:07:49.119Z,98529.16
2022-09-23T05:08:54.510Z,98523.69
2022-09-23T05:09:57.894Z,98519.25
2022-09-23T05:11:02.754Z,98526.81
2022-09-23T05:12:05.872Z,98528.13
2022-09-23T05:13:09.596Z,98526.56
2022-09-23T05:14:12.525Z,98525.28
2022-09-23T05:15:16.439Z,98530.72
2022-09-23T05:16:20.252Z,98534.62
2022-09-23T05:17:23.172Z,98531.00
2022-09-23T05:18:26.134Z,98532.28
2022-09-23T05:19:28.965Z,98524.75
2022-09-23T05:20:31.813Z,98530.97
2022-09-23T05:21:35.447Z,98532.81
2022-09-23T05:22:38.324Z,98529.97
2022-09-23T05:23:42.224Z,98533.09
2022-09-23T05:24:44.920Z,98533.34
2022-09-23T05:25:48.468Z,98533.06
2022-09-23T05:26:52.104Z,98533.06
2022-09-23T05:27:54.812Z,98529.19
2022-09-23T05:28:59.667Z,98544.28
2022-09-23T05:30:02.758Z,98541.69
2022-09-23T05:31:19.951Z,98547.97
2022-09-23T05:32:23.607Z,98538.31
2022-09-23T05:33:26.480Z,98546.63
2022-09-23T05:34:29.298Z,98541.16
2022-09-23T05:35:32.185Z,98555.00
2022-09-23T05:36:39.046Z,98545.59
2022-09-23T05:37:42.135Z,98547.94
2022-09-23T05:38:50.271Z,98544.28
2022-09-23T05:39:53.045Z,98544.56
2022-09-23T05:40:57.762Z,98552.87
2022-09-23T05:42:00.711Z,98545.84
2022-09-23T05:43:03.600Z,98548.72
2022-09-23T05:44:06.525Z,98544.03
2022-09-23T05:45:09.775Z,98541.69
2022-09-23T05:46:21.234Z,98546.09
2022-09-23T05:47:24.053Z,98544.78
2022-09-23T05:48:27.373Z,98542.72
2022-09-23T05:49:55.304Z,98550.53
2022-09-23T05:50:53.708Z,98551.31
2022-09-23T05:51:56.532Z,98544.81
2022-09-23T05:52:59.995Z,98543.25
2022-09-23T05:54:04.527Z,98548.47
2022-09-23T05:55:08.068Z,98542.72
2022-09-23T05:56:12.702Z,98539.84
2022-09-23T05:57:15.918Z,98548.72
2022-09-23T05:58:18.990Z,98543.78
2022-09-23T05:59:21.901Z,98541.16
2022-09-23T06:00:26.297Z,98543.25
2022-09-23T06:01:34.000Z,98546.59
2022-09-23T06:02:37.502Z,98544.78
2022-09-23T06:03:40.971Z,98543.75
2022-09-23T06:04:44.250Z,98535.16
2022-09-23T06:05:48.621Z,98537.75
2022-09-23T06:06:51.671Z,98547.38
2022-09-23T06:07:54.535Z,98551.28
2022-09-23T06:08:59.684Z,98538.75
2022-09-23T06:10:02.586Z,98542.12
2022-09-23T06:11:07.873Z,98546.25
2022-09-23T06:12:14.299Z,98555.88
2022-09-23T06:13:17.187Z,98549.41
2022-09-23T06:14:20.154Z,98552.28
2022-09-23T06:15:23.034Z,98550.38
2022-09-23T06:16:29.345Z,98546.97
2022-09-23T06:17:35.907Z,98549.56
2022-09-23T06:18:40.817Z,98555.84
2022-09-23T06:19:43.831Z,98552.72
2022-09-23T06:20:46.684Z,98554.75
2022-09-23T06:21:49.903Z,98549.25
2022-09-23T06:22:55.199Z,98555.75
2022-09-23T06:24:03.057Z,98557.53
2022-09-23T06:25:06.419Z,98552.59
2022-09-23T06:26:11.263Z,98553.34
2022-09-23T06:27:14.173Z,98553.81
2022-09-23T06:28:17.012Z,98550.09
2022-09-23T06:29:20.047Z,98552.59
2022-09-23T06:30:25.022Z,98557.81
2022-09-23T06:31:28.284Z,98557.72
2022-09-23T06:32:31.173Z,98556.84
2022-09-23T06:33:37.222Z,98556.03
2022-09-23T06:34:50.860Z,98565.44
2022-09-23T06:35:59.967Z,98560.94
2022-09-23T06:37:12.479Z,98562.44
2022-09-23T06:38:17.817Z,98563.13
2022-09-23T06:39:20.667Z,98558.53
2022-09-23T06:40:23.577Z,98559.22
2022-09-23T06:41:26.577Z,98563.13
2022-09-23T06:42:29.249Z,98564.12
2022-09-23T06:43:32.223Z,98565.84
2022-09-23T06:44:35.162Z,98564.47
2022-09-23T06:45:38.007Z,98559.94
2022-09-23T06:46:41.192Z,98571.09
2022-09-23T06:47:44.691Z,98569.16
2022-09-23T06:48:49.521Z,98568.44
2022-09-23T06:49:52.307Z,98571.72
2022-09-23T06:50:58.544Z,98564.84
2022-09-23T06:52:01.505Z,98561.81
2022-09-23T06:53:05.046Z,98565.38
2022-09-23T06:54:08.352Z,98565.53
2022-09-23T06:55:11.631Z,98570.03
2022-09-23T06:56:15.023Z,98566.41
2022-09-23T06:57:17.929Z,98566.22
2022-09-23T06:58:21.215Z,98568.84
2022-09-23T06:59:25.249Z,98564.19
2022-09-23T07:00:28.821Z,98568.13
2022-09-23T07:01:32.003Z,98570.38
2022-09-23T07:02:35.041Z,98568.16
2022-09-23T07:03:38.702Z,98570.47
2022-09-23T07:04:41.502Z,98572.62
2022-09-23T07:05:44.237Z,98566.09
2022-09-23T07:06:47.549Z,98561.25
2022-09-23T07:07:50.614Z,98561.03
2022-09-23T07:08:53.613Z,98566.28
2022-09-23T07:09:56.505Z,98562.38
2022-09-23T07:11:01.579Z,98562.75
2022-09-23T07:12:04.527Z,98562.25
2022-09-23T07:13:07.290Z,98557.91
2022-09-23T07:14:10.161Z,98561.66
2022-09-23T07:15:13.151Z,98557.06
2022-09-23T07:16:16.017Z,98554.31
2022-09-23T07:17:19.018Z,98564.91
2022-09-23T07:18:25.834Z,98559.19
2022-09-23T07:19:28.697Z,98566.59
2022-09-23T07:20:32.326Z,98558.56
2022-09-23T07:21:35.359Z,98571.06
2022-09-23T07:22:38.755Z,98562.75
2022-09-23T07:23:46.588Z,98568.31
2022-09-23T07:24:49.574Z,98571.88
2022-09-23T07:25:52.893Z,98573.63
2022-09-23T07:26:55.878Z,98574.00
2022-09-23T07:27:58.717Z,98565.66
2022-09-23T07:29:06.029Z,98567.56
2022-09-23T07:30:19.795Z,98572.53
2022-09-23T07:31:37.335Z,98576.28
2022-09-23T07:32:48.260Z,98571.91
2022-09-23T07:33:57.434Z,98578.09
2022-09-23T07:35:06.292Z,98576.41
2022-09-23T07:36:11.814Z,98582.03
2022-09-23T07:37:18.631Z,98576.03
2022-09-23T07:38:25.090Z,98580.69
2022-09-23T07:39:27.971Z,98567.66
2022-09-23T07:40:30.940Z,98571.34
2022-09-23T07:41:37.551Z,98566.06
2022-09-23T07:42:41.063Z,98568.06
2022-09-23T07:43:44.496Z,98578.19
2022-09-23T07:44:47.600Z,98579.41
2022-09-23T07:45:50.459Z,98572.22
2022-09-23T07:46:53.507Z,98567.63
2022-09-23T07:47:56.307Z,98571.34
2022-09-23T07:48:59.648Z,98566.97
2022-09-23T07:50:06.752Z,98572.81
2022-09-23T07:51:11.621Z,98566.59
2022-09-23T07:52:14.506Z,98569.16
2022-09-23T07:53:17.251Z,98566.66
2022-09-23T07:54:20.895Z,98567.25
2022-09-23T07:55:23.775Z,98573.78
2022-09-23T07:56:29.352Z,98575.53
2022-09-23T07:57:33.050Z,98561.72
2022-09-23T07:58:36.127Z,98570.88
2022-09-23T07:59:39.746Z,98572.34
2022-09-23T08:00:42.608Z,98570.00
2022-09-23T08:01:48.522Z,98570.81
2022-09-23T08:02:53.248Z,98570.06
2022-09-23T08:04:01.512Z,98568.84
2022-09-23T08:05:06.027Z,98577.44
2022-09-23T08:06:15.520Z,98571.78
2022-09-23T08:07:18.671Z,98568.28
2022-09-23T08:08:21.443Z,98573.63
2022-09-23T08:09:28.032Z,98570.75
2022-09-23T08:10:30.869Z,98569.50
2022-09-23T08:11:33.756Z,98571.84
2022-09-23T08:12:36.474Z,98575.94
2022-09-23T08:13:39.495Z,98571.50
2022-09-23T08:14:42.639Z,98580.97
2022-09-23T08:15:53.280Z,98568.78
2022-09-23T08:16:58.189Z,98573.19
2022-09-23T08:18:01.477Z,98566.50
2022-09-23T08:20:08.719Z,98574.59
2022-09-23T08:21:12.040Z,98571.69
2022-09-23T08:22:16.559Z,98570.59
2022-09-23T08:23:20.683Z,98574.41
2022-09-23T08:24:24.447Z,98577.69
2022-09-23T08:25:27.547Z,98574.72
2022-09-23T08:26:32.584Z,98572.47
2022-09-23T08:27:35.713Z,98571.19
2022-09-23T08:28:38.666Z,98563.47
2022-09-23T08:29:41.386Z,98566.41
2022-09-23T08:30:45.746Z,98565.75
2022-09-23T08:31:50.314Z,98562.19
2022-09-23T08:32:54.554Z,98560.09
2022-09-23T08:33:58.962Z,98564.31
2022-09-23T08:35:05.372Z,98554.13
2022-09-23T08:36:08.621Z,98566.59
2022-09-23T08:37:11.855Z,98564.31
2022-09-23T08:38:16.090Z,98558.88
2022-09-23T08:39:20.635Z,98560.34
2022-09-23T08:40:24.548Z,98554.78
2022-09-23T08:42:03.411Z,98546.31
2022-09-23T08:43:07.865Z,98562.81
2022-09-23T08:44:19.583Z,98565.25
2022-09-23T08:45:27.578Z,98563.22
2022-09-23T08:46:37.873Z,98562.78
2022-09-23T08:47:45.796Z,98560.56
2022-09-23T08:48:49.990Z,98567.37
2022-09-23T08:50:09.265Z,98559.47
2022-09-23T08:51:20.397Z,98559.22
2022-09-23T08:52:35.945Z,98563.31
2022-09-23T08:53:39.555Z,98564.44
2022-09-23T08:54:42.631Z,98561.16
2022-09-23T08:55:51.203Z,98564.59
2022-09-23T08:56:58.845Z,98558.59
2022-09-23T08:58:25.634Z,98549.81
2022-09-23T08:59:55.284Z,98546.16
2022-09-23T09:01:22.769Z,98551.81
2022-09-23T09:02:26.027Z,98554.13
2022-09-23T09:03:48.240Z,98548.59
2022-09-23T09:04:58.341Z,98553.37
2022-09-23T09:06:01.425Z,98564.75
2022-09-23T09:07:35.806Z,98567.25
2022-09-23T09:08:39.807Z,98562.00
2022-09-23T09:10:03.377Z,98572.84
2022-09-23T09:11:07.714Z,98570.72
2022-09-23T09:12:18.887Z,98572.28
2022-09-23T09:13:43.546Z,98574.44
2022-09-23T09:15:18.445Z,98561.97
2022-09-23T09:17:01.769Z,98569.59
2022-09-23T09:18:08.116Z,98567.72
2022-09-23T09:19:21.864Z,98567.72
2022-09-23T09:20:36.366Z,98568.16
2022-09-23T09:21:42.848Z,98563.84
2022-09-23T09:23:02.936Z,98564.97
2022-09-23T09:24:20.229Z,98567.47
2022-09-23T09:25:27.296Z,98565.75
2022-09-23T09:26:34.256Z,98562.19
2022-09-23T09:27:41.512Z,98559.00
2022-09-23T09:28:51.472Z,98561.25
2022-09-23T09:29:55.687Z,98567.34
2022-09-23T09:31:03.007Z,98561.22
2022-09-23T09:32:46.600Z,98559.31
2022-09-23T09:34:05.774Z,98560.31
2022-09-23T09:35:25.914Z,98558.03
2022-09-23T09:36:36.257Z,98563.38
2022-09-23T09:37:47.264Z,98553.56
2022-09-23T09:38:51.776Z,98559.56
2022-09-23T09:39:56.630Z,98555.03
2022-09-23T09:41:09.461Z,98555.13
2022-09-23T09:42:24.830Z,98557.22
2022-09-23T09:43:27.703Z,98552.41
2022-09-23T09:44:48.610Z,98559.00
2022-09-23T09:45:58.232Z,98554.91
2022-09-23T09:47:32.017Z,98543.75
2022-09-23T09:48:54.846Z,98543.16
2022-09-23T09:50:06.120Z,98547.09
2022-09-23T09:51:23.458Z,98541.62
2022-09-23T09:52:30.046Z,98538.31
2022-09-23T09:53:35.989Z,98546.03
2022-09-23T09:54:39.808Z,98542.34
2022-09-23T09:55:43.358Z,98541.38
2022-09-23T09:56:52.318Z,98541.16
2022-09-23T09:58:04.294Z,98536.97
2022-09-23T09:59:15.749Z,98537.00
2022-09-23T10:00:33.735Z,98537.78
2022-09-23T10:01:36.645Z,98531.63
2022-09-23T10:02:40.340Z,98534.56
2022-09-23T10:03:48.562Z,98534.41
2022-09-23T10:04:58.263Z,98534.00
2022-09-23T10:06:18.616Z,98538.09
2022-09-23T10:07:26.429Z,98530.87
2022-09-23T10:08:37.891Z,98533.50
2022-09-23T10:09:48.999Z,98534.78
2022-09-23T10:10:55.082Z,98540.28
2022-09-23T10:12:16.022Z,98536.19
2022-09-23T10:13:21.243Z,98535.38
2022-09-23T10:14:24.587Z,98538.22
2022-09-23T10:15:45.029Z,98539.91
2022-09-23T10:17:02.327Z,98541.22
2022-09-23T10:18:21.147Z,98537.94
2022-09-23T10:19:29.876Z,98530.75
2022-09-23T10:20:38.229Z,98535.09
2022-09-23T10:21:42.688Z,98530.81
2022-09-23T10:22:48.327Z,98538.06
2022-09-23T10:23:55.314Z,98530.78
2022-09-23T10:25:03.835Z,98546.75
2022-09-23T10:26:12.463Z,98543.88
2022-09-23T10:27:15.663Z,98544.47
2022-09-23T10:28:33.321Z,98545.06
2022-09-23T10:29:48.432Z,98548.47
2022-09-23T10:31:12.926Z,98548.44
2022-09-23T10:32:21.341Z,98547.13
2022-09-23T10:33:28.135Z,98545.25
2022-09-23T10:34:35.177Z,98542.91
2022-09-23T10:35:57.381Z,98550.56
2022-09-23T10:37:14.208Z,98542.63
2022-09-23T10:38:17.218Z,98545.84
2022-09-23T10:39:39.076Z,98536.41
2022-09-23T10:41:02.510Z,98533.00
2022-09-23T10:42:46.775Z,98535.78
2022-09-23T10:44:44.341Z,98534.88
2022-09-23T10:46:09.130Z,98540.09
2022-09-23T10:47:29.938Z,98537.75
2022-09-23T10:48:42.190Z,98536.34
2022-09-23T10:49:57.508Z,98541.28
2022-09-23T10:51:00.999Z,98535.66
2022-09-23T10:52:22.619Z,98537.84
2022-09-23T10:53:49.670Z,98542.00
2022-09-23T10:55:23.604Z,98542.59
2022-09-23T10:57:01.745Z,98540.00
2022-09-23T10:58:38.630Z,98534.03
2022-09-23T10:59:58.257Z,98529.13
2022-09-23T11:01:31.422Z,98532.84
2022-09-23T11:02:52.902Z,98535.69
2022-09-23T11:04:12.776Z,98531.59
2022-09-23T11:05:38.702Z,98530.91
2022-09-23T11:07:18.704Z,98530.31
2022-09-23T11:08:33.479Z,98522.19
2022-09-23T11:09:51.070Z,98524.22
2022-09-23T11:11:13.088Z,98515.94
2022-09-23T11:12:45.883Z,98521.56
2022-09-23T11:14:17.432Z,98524.22
2022-09-23T11:15:35.163Z,98521.03
2022-09-23T11:16:58.965Z,98523.50
2022-09-23T11:18:16.963Z,98514.34
2022-09-23T11:19:24.841Z,98519.12
2022-09-23T11:20:52.898Z,98526.06
2022-09-23T11:22:07.348Z,98519.56
2022-09-23T11:23:17.280Z,98519.25
2022-09-23T11:24:49.569Z,98509.59
2022-09-23T11:26:41.319Z,98505.16
2022-09-23T11:27:52.983Z,98506.78
2022-09-23T11:29:11.508Z,98507.06
2022-09-23T11:30:20.383Z,98507.69
2022-09-23T11:31:50.894Z,98507.28
2022-09-23T11:33:22.729Z,98501.91
2022-09-23T11:34:44.575Z,98504.69
2022-09-23T11:35:59.306Z,98498.63
2022-09-23T11:37:13.879Z,98502.88
2022-09-23T11:38:29.703Z,98492.41
2022-09-23T11:39:46.299Z,98504.22
2022-09-23T11:40:55.159Z,98495.91
2022-09-23T11:42:01.875Z,98501.25
2022-09-23T11:43:16.037Z,98496.47
2022-09-23T11:44:28.799Z,98500.37
2022-09-23T11:45:36.946Z,98498.78
2022-09-23T11:46:45.279Z,98495.00
2022-09-23T11:48:14.317Z,98495.00
2022-09-23T11:49:28.343Z,98489.75
2022-09-23T11:50:40.583Z,98486.53
2022-09-23T11:52:10.835Z,98486.78
2022-09-23T11:53:22.837Z,98484.87
2022-09-23T11:54:53.414Z,98489.12
2022-09-23T11:56:14.122Z,98487.19
2022-09-23T11:57:54.555Z,98477.13
2022-09-23T11:59:16.305Z,98476.37
2022-09-23T12:00:21.379Z,98481.56
2022-09-23T12:01:37.325Z,98486.72
2022-09-23T12:02:41.135Z,98481.56
2022-09-23T12:03:59.165Z,98476.50
2022-09-23T12:05:16.984Z,98487.97
2022-09-23T12:06:46.347Z,98482.56
2022-09-23T12:07:59.848Z,98481.56
2022-09-23T12:09:12.861Z,98484.44
2022-09-23T12:10:16.614Z,98478.41
2022-09-23T12:11:50.484Z,98478.56
2022-09-23T12:13:10.737Z,98478.16
2022-09-23T12:14:25.084Z,98476.19
2022-09-23T12:15:51.366Z,98477.06
2022-09-23T12:17:13.024Z,98473.50
2022-09-23T12:18:24.897Z,98472.84
2022-09-23T12:20:08.007Z,98466.47
2022-09-23T12:21:49.677Z,98465.56
2022-09-23T12:23:15.536Z,98465.16
2022-09-23T12:24:44.672Z,98463.84
2022-09-23T12:25:57.449Z,98463.03
2022-09-23T12:27:06.441Z,98455.00
2022-09-23T12:28:26.461Z,98439.97
2022-09-23T12:29:32.318Z,98452.81
2022-09-23T12:30:38.115Z,98458.94
2022-09-23T12:31:45.327Z,98453.69
2022-09-23T12:32:49.952Z,98445.50
2022-09-23T12:33:54.925Z,98450.25
2022-09-23T12:34:59.807Z,98445.25
2022-09-23T12:36:06.356Z,98446.72
2022-09-23T12:37:09.252Z,98441.25
2022-09-23T12:38:25.493Z,98436.81
2022-09-23T12:39:32.135Z,98433.84
2022-09-23T12:40:44.096Z,98425.78
2022-09-23T12:41:52.053Z,98437.69
2022-09-23T12:42:55.432Z,98433.94
2022-09-23T12:44:22.194Z,98433.50
2022-09-23T12:45:34.177Z,98435.12
2022-09-23T12:46:37.144Z,98427.00
2022-09-23T12:47:40.482Z,98429.38
2022-09-23T12:48:58.516Z,98427.66
2022-09-23T12:50:04.621Z,98425.13
2022-09-23T12:51:17.999Z,98419.47
2022-09-23T12:52:20.765Z,98434.22
2022-09-23T12:53:35.437Z,98430.47
2022-09-23T12:54:43.534Z,98423.09
2022-09-23T12:55:47.156Z,98433.66
2022-09-23T12:56:56.277Z,98433.66
2022-09-23T12:57:59.238Z,98429.34
2022-09-23T12:59:23.244Z,98426.19
2022-09-23T13:00:30.934Z,98425.13
2022-09-23T13:01:37.420Z,98421.03
2022-09-23T13:02:47.815Z,98420.75
2022-09-23T13:04:15.117Z,98423.41
2022-09-23T13:05:42.913Z,98416.53
2022-09-23T13:07:08.482Z,98414.16
2022-09-23T13:08:21.113Z,98414.38
2022-09-23T13:09:32.105Z,98418.25
2022-09-23T13:10:40.161Z,98417.13
2022-09-23T13:11:45.823Z,98421.16
2022-09-23T13:12:48.874Z,98419.38
2022-09-23T13:13:52.524Z,98416.28
2022-09-23T13:15:00.874Z,98415.41
2022-09-23T13:16:32.172Z,98413.47
2022-09-23T13:17:39.848Z,98416.06
2022-09-23T13:18:56.270Z,98412.62
2022-09-23T13:20:22.104Z,98417.69
2022-09-23T13:21:42.864Z,98410.06
2022-09-23T13:22:52.083Z,98412.75
2022-09-23T13:24:20.516Z,98412.41
2022-09-23T13:25:26.577Z,98414.31
2022-09-23T13:26:32.622Z,98417.63
2022-09-23T13:27:36.421Z,98417.84
2022-09-23T13:28:56.119Z,98412.34
2022-09-23T13:30:14.368Z,98409.22
2022-09-23T13:31:21.557Z,98412.00
2022-09-23T13:32:37.547Z,98410.44
2022-09-23T13:33:50.621Z,98410.91
2022-09-23T13:34:59.103Z,98407.03
2022-09-23T13:36:04.521Z,98412.88
2022-09-23T13:37:44.722Z,98417.78
2022-09-23T13:38:47.912Z,98404.16
2022-09-23T13:39:51.552Z,98397.56
2022-09-23T13:40:57.250Z,98400.87
2022-09-23T13:42:04.444Z,98394.91
2022-09-23T13:43:18.586Z,98393.09